Presque Isle, Maine
Current Conditions -  °F | °C
As of 7:35 PM on Saturday 25 Oct 2014 (Local Time) from KPQI Reporting Station
Overcast Overcast  
Wind Chill: 41°   Ceiling: 6500
Heat Index: 41°   Visibility: 10mi
Dew Point: 37°   Wind: 0mph
Humidity: 87%   Direction: NA
Pressure: 29.53"   Gusts: NA
Location:  46.68°N, 68.01°W
Report Text: KPQI 252335Z AUTO 00000KT 10SM OVC065 05/03 A2953 RMK AO1
Loading
Personal Weather Stations






























Interactive Weather Map
Tropical Storm Tracking
New forecast layout! Learn more

10-Day Weather Forecast

Advertisements
Track Severe Weather on mobile